aviador You're here:

KRVS Decoded Metar

TULSA in OK, USA
Report Time2017-04-25 07:53:00
UTC Time2017-04-25 08:31:42
Flight Rules vfr VFR
Wind160° at 06 kt
W.Decomp.*RWY 13: 5.5 kt HW 2.4 kt RCW
RWY 19: 4.9 kt HW 3.5 kt LCW
W.Rank160° ranks 4
Current wind is below 160° avg. (6.5)
Visibility9999 m
Phenomena:N/A
Clouds:N/A
Expected CloudBase > 3,200 ft AGL from Temp-Dew spread
CeilingNone
Temp17°C (ISA +3)
Dew Point09°C (59% RH)
AAT14.6°C
QNH1000 hPa
Density Alt1,644 ft
Elevation656 ft
Report Wrong Elevation
Raw Report
KRVS 250753Z 16006KT 10SM CLR 17/09 A2954 RMK AO2 SLP008
T01670089=

Extra information for KRVS:More info

Metar Taf Metar & Taf Last 4 Metars F.Rules Stats Wind Profile Meteogram Temp Stats Airport Information Weather charts Add Link Nearby VenuesMetar ALERT Operation Metar Decoded Social comments

AIRNAV info for KRVS